^^
Datos históricos de la estación: Murcia-Puente Tocinos
Diario Informe para Junio 24, 2021 Unidades:  Métrico    Ingés   Ambas
Diario Semanal Mensual Anual
  Máxima: Mínima: Promedio:
Temperatura: 26.4 °C 19.8 °C 23.2 °C
Punto de rocio: 18.1 °C 13.7 °C 16.2 °C
Humedad: 83% 46.2% 66%
Velocidad viento: 18km/h 0km/h 8.4km/h
Racha viento: 40.2km/h - -
Viento- - Este
Presión: 1019.9 hPa 1017.4 hPa -
Precipitación: 0.0 mm    
 
 
Tabla de datos para Junio 24, 2021
Hora Temperatura Punto de rocio Presión Viento Velocidad viento Racha viento Humedad Intensidad lluvia(por hora) Nubes
00:04 21.3 °C 18.1 °C 1018.1 hPa NNE 8.7 km/h 16.1 km/h 82% 0.0 mm
00:09 21.2 °C 18 °C 1018.1 hPa NNE 8.7 km/h 13.7 km/h 82% 0.0 mm
00:14 21.2 °C 17.9 °C 1018.1 hPa NE 8.7 km/h 13 km/h 82% 0.0 mm
00:19 21.1 °C 17.9 °C 1018.1 hPa NNE 8.5 km/h 10.3 km/h 82% 0.0 mm
00:24 21.1 °C 17.9 °C 1018.2 hPa NE 8.4 km/h 11.1 km/h 82% 0.0 mm
00:29 21.1 °C 17.9 °C 1018.2 hPa NE 7.5 km/h 11.1 km/h 82.3% 0.0 mm
00:34 21 °C 18 °C 1018.2 hPa NE 6.9 km/h 10 km/h 83% 0.0 mm
00:39 21 °C 18 °C 1018.2 hPa NE 6.6 km/h 9.7 km/h 83% 0.0 mm
00:44 21 °C 18 °C 1018.2 hPa NNE 6.4 km/h 7.6 km/h 83% 0.0 mm
00:49 20.9 °C 17.9 °C 1018.2 hPa NE 5.6 km/h 9.3 km/h 83% 0.0 mm
00:54 20.9 °C 17.9 °C 1018.2 hPa North 5 km/h 8.4 km/h 83% 0.0 mm
00:59 20.9 °C 17.9 °C 1018.2 hPa NNE 5 km/h 7.6 km/h 83% 0.0 mm
01:04 20.9 °C 17.9 °C 1018.2 hPa NE 5 km/h 8.4 km/h 83% 0.0 mm
01:09 20.9 °C 17.9 °C 1018.2 hPa NNE 5 km/h 7.6 km/h 83% 0.0 mm
01:14 20.8 °C 17.8 °C 1018.2 hPa North 5 km/h 8.7 km/h 83% 0.0 mm
01:19 20.8 °C 17.8 °C 1018.2 hPa NE 5.5 km/h 9.7 km/h 83% 0.0 mm
01:24 20.8 °C 17.8 °C 1018.2 hPa NNE 5.8 km/h 7.6 km/h 83% 0.0 mm
01:29 20.8 °C 17.8 °C 1018.1 hPa NE 5.1 km/h 9.5 km/h 83% 0.0 mm
01:34 20.8 °C 17.8 °C 1018.1 hPa NNE 4.6 km/h 9.7 km/h 83% 0.0 mm
01:39 20.8 °C 17.8 °C 1018.2 hPa NE 4.9 km/h 7.4 km/h 83% 0.0 mm
01:44 20.7 °C 17.7 °C 1018.2 hPa NE 5 km/h 8.4 km/h 83% 0.0 mm
01:49 20.8 °C 17.8 °C 1018.2 hPa NE 4.8 km/h 10 km/h 83% 0.0 mm
01:54 20.8 °C 17.8 °C 1018.2 hPa NNE 4.7 km/h 8.4 km/h 83% 0.0 mm
01:59 20.8 °C 17.8 °C 1018.2 hPa NNE 4.7 km/h 8 km/h 83% 0.0 mm
02:04 20.8 °C 17.8 °C 1018.2 hPa NE 4.6 km/h 7.4 km/h 83% 0.0 mm
02:09 20.8 °C 17.8 °C 1018.2 hPa ENE 4.2 km/h 7.6 km/h 83% 0.0 mm
02:14 20.8 °C 17.8 °C 1018.1 hPa NE 3.9 km/h 7.6 km/h 83% 0.0 mm
02:19 20.8 °C 17.8 °C 1018.1 hPa NNE 4.4 km/h 8 km/h 83% 0.0 mm
02:24 20.8 °C 17.8 °C 1018.1 hPa NNO 4.7 km/h 7.4 km/h 83% 0.0 mm
02:29 20.8 °C 17.8 °C 1018.1 hPa NO 3.5 km/h 8 km/h 83% 0.0 mm
02:34 20.8 °C 17.8 °C 1018.1 hPa NO 2.9 km/h 5 km/h 83% 0.0 mm
02:39 20.8 °C 17.8 °C 1018.1 hPa NO 2.5 km/h 5.6 km/h 83% 0.0 mm
02:44 20.8 °C 17.8 °C 1018.1 hPa NO 2.2 km/h 5.6 km/h 83% 0.0 mm
02:49 20.8 °C 17.8 °C 1018.1 hPa NO 2.6 km/h 5.8 km/h 83% 0.0 mm
02:54 20.8 °C 17.8 °C 1018.1 hPa NNO 2.9 km/h 6.4 km/h 83% 0.0 mm
02:59 20.8 °C 17.8 °C 1018.0 hPa NNO 2.9 km/h 6.4 km/h 83% 0.0 mm
03:04 20.8 °C 17.8 °C 1018.0 hPa NNO 2.9 km/h 6.4 km/h 83% 0.0 mm
03:09 20.8 °C 17.8 °C 1018.0 hPa NNO 2.5 km/h 4.8 km/h 83% 0.0 mm
03:14 20.8 °C 17.8 °C 1018.0 hPa NNO 2.2 km/h 1.6 km/h 83% 0.0 mm
03:19 20.8 °C 17.8 °C 1018.0 hPa NNO 0.9 km/h   83% 0.0 mm
03:24 20.8 °C 17.7 °C 1018.0 hPa Calm     82.8% 0.0 mm
03:29 20.8 °C 17.6 °C 1017.9 hPa Calm     82% 0.0 mm
03:34 20.7 °C 17.5 °C 1017.9 hPa Calm     82% 0.0 mm
03:39 20.7 °C 17.6 °C 1017.9 hPa Calm     82.5% 0.0 mm
03:44 20.6 °C 17.6 °C 1017.8 hPa Calm     82.7% 0.0 mm
03:49 20.6 °C 17.6 °C 1017.8 hPa Calm   5.8 km/h 83% 0.0 mm
03:54 20.5 °C 17.5 °C 1017.8 hPa Calm   5.6 km/h 83% 0.0 mm
03:59 20.4 °C 17.4 °C 1017.8 hPa ONO 1.8 km/h 5.6 km/h 83% 0.0 mm
04:04 20.4 °C 17.4 °C 1017.8 hPa NO 2.9 km/h 4.8 km/h 83% 0.0 mm
04:09 20.4 °C 17.4 °C 1017.8 hPa NO 2.5 km/h 5.8 km/h 83% 0.0 mm
04:14 20.3 °C 17.3 °C 1017.7 hPa NO 2.2 km/h 6.4 km/h 83% 0.0 mm
04:19 20.3 °C 17.3 °C 1017.7 hPa NO 2.8 km/h 5.8 km/h 83% 0.0 mm
04:24 20.2 °C 17.3 °C 1017.7 hPa ONO 3.2 km/h 5.6 km/h 83% 0.0 mm
04:29 20.2 °C 17.2 °C 1017.7 hPa Oeste 3 km/h 5.8 km/h 83% 0.0 mm
04:34 20.2 °C 17.2 °C 1017.7 hPa Oeste 2.9 km/h 5.6 km/h 83% 0.0 mm
04:39 20.1 °C 17.1 °C 1017.7 hPa Oeste 3.1 km/h 5.6 km/h 83% 0.0 mm
04:44 20.1 °C 17.1 °C 1017.7 hPa ONO 3.2 km/h 5.8 km/h 83% 0.0 mm
04:49 20.1 °C 17.1 °C 1017.7 hPa ONO 3 km/h 5.6 km/h 83% 0.0 mm
04:54 20.1 °C 16.9 °C 1017.7 hPa ONO 2.9 km/h 5.8 km/h 82% 0.0 mm
04:59 19.9 °C 16.8 °C 1017.7 hPa Oeste 3.5 km/h 6.4 km/h 82% 0.0 mm
05:04 19.9 °C 16.7 °C 1017.7 hPa Oeste 3.9 km/h 8 km/h 82% 0.0 mm
05:09 19.9 °C 16.8 °C 1017.7 hPa Oeste 4.4 km/h 8 km/h 82.3% 0.0 mm
05:14 19.8 °C 16.7 °C 1017.7 hPa OSO 4.7 km/h 7.4 km/h 82.4% 0.0 mm
05:19 19.8 °C 16.6 °C 1017.7 hPa Oeste 4.3 km/h 7.4 km/h 82% 0.0 mm
05:24 19.8 °C 16.6 °C 1017.7 hPa Oeste 3.9 km/h 5.8 km/h 82% 0.0 mm
05:29 19.8 °C 16.6 °C 1017.7 hPa OSO 3.9 km/h 8 km/h 82% 0.0 mm
05:34 19.8 °C 16.6 °C 1017.7 hPa OSO 3.9 km/h 5.6 km/h 82% 0.0 mm
05:39 19.9 °C 16.7 °C 1017.8 hPa OSO 3.2 km/h 5.6 km/h 82% 0.0 mm
05:44 19.9 °C 16.7 °C 1017.8 hPa OSO 2.9 km/h 3.9 km/h 82% 0.0 mm
05:49 19.9 °C 16.6 °C 1017.8 hPa OSO 2.5 km/h 3.7 km/h 81.2% 0.0 mm
05:54 20 °C 16.6 °C 1017.8 hPa OSO 2.2 km/h 5.8 km/h 81% 0.0 mm
05:59 20.1 °C 16.9 °C 1017.8 hPa ESE 2.7 km/h 7.4 km/h 82% 0.0 mm
06:04 20.2 °C 17 °C 1017.8 hPa SE 2.9 km/h 8 km/h 82% 0.0 mm
06:09 20.2 °C 17 °C 1017.8 hPa SE 3.1 km/h 8 km/h 82.2% 0.0 mm
06:14 20.2 °C 17.2 °C 1017.8 hPa SSE 3.2 km/h 6.4 km/h 82.9% 0.0 mm
06:19 20.1 °C 17 °C 1017.8 hPa Sur 3.2 km/h 8.4 km/h 82.5% 0.0 mm
06:24 20.1 °C 17.1 °C 1017.9 hPa SSE 3.2 km/h 7.6 km/h 83% 0.0 mm
06:29 20 °C 17 °C 1017.9 hPa SSE 4.1 km/h 8.4 km/h 83% 0.0 mm
06:34 19.9 °C 16.9 °C 1017.9 hPa Sur 4.7 km/h 8.7 km/h 83% 0.0 mm
06:39 19.9 °C 16.9 °C 1017.9 hPa Sur 4.8 km/h 8.4 km/h 83% 0.0 mm
06:44 19.8 °C 16.9 °C 1017.9 hPa Sur 5 km/h 9.5 km/h 83% 0.0 mm
06:49 19.8 °C 16.8 °C 1017.9 hPa SSO 5.5 km/h 9.5 km/h 83% 0.0 mm
06:54 19.8 °C 16.8 °C 1018.0 hPa SO 5.8 km/h 6.9 km/h 83% 0.0 mm
06:59 19.8 °C 16.8 °C 1018.0 hPa SO 4 km/h 8 km/h 83% 0.0 mm
07:04 19.8 °C 16.9 °C 1018.0 hPa SSO 3.2 km/h 8.7 km/h 83% 0.0 mm
07:09 19.9 °C 16.9 °C 1018.1 hPa Sur 4.1 km/h 9.7 km/h 83% 0.0 mm
07:14 19.9 °C 16.9 °C 1018.1 hPa Sur 4.7 km/h 9.3 km/h 83% 0.0 mm
07:19 19.9 °C 16.9 °C 1018.1 hPa SSO 4.9 km/h 9.3 km/h 83% 0.0 mm
07:24 19.9 °C 16.9 °C 1018.3 hPa SO 5 km/h 6.4 km/h 83% 0.0 mm
07:29 19.9 °C 16.9 °C 1018.3 hPa SO 4.3 km/h 7.4 km/h 82.9% 0.0 mm
07:34 20 °C 16.8 °C 1018.3 hPa OSO 3.9 km/h   82% 0.0 mm
07:39 20.1 °C 16.9 °C 1018.4 hPa OSO 1.3 km/h   82% 0.0 mm
07:44 20.2 °C 16.8 °C 1018.4 hPa Calm     81.1% 0.0 mm
07:49 20.3 °C 16.7 °C 1018.4 hPa Calm     80% 0.0 mm
07:54 20.3 °C 16.6 °C 1018.4 hPa Calm     79.1% 0.0 mm
07:59 20.3 °C 16.4 °C 1018.4 hPa Calm     78.3% 0.0 mm
08:04 20.4 °C 16.4 °C 1018.4 hPa Calm     78% 0.0 mm
08:09 20.5 °C 16.5 °C 1018.6 hPa Calm     77.8% 0.0 mm
08:14 20.7 °C 16.5 °C 1018.6 hPa Calm     77% 0.0 mm
08:19 20.7 °C 16.5 °C 1018.6 hPa Calm     76.7% 0.0 mm
08:24 20.8 °C 16.6 °C 1018.7 hPa Calm   5.6 km/h 77% 0.0 mm
08:29 20.9 °C 16.6 °C 1018.7 hPa Calm   4.8 km/h 76.6% 0.0 mm
08:34 21 °C 16.6 °C 1018.7 hPa Calm   5 km/h 76% 0.0 mm
08:39 21.1 °C 16.7 °C 1018.8 hPa Calm   5.6 km/h 76% 0.0 mm
08:44 21.1 °C 16.6 °C 1018.8 hPa Calm   1.9 km/h 75.6% 0.0 mm
08:49 21.2 °C 16.7 °C 1018.8 hPa Calm   9.5 km/h 75.6% 0.0 mm
08:54 21.2 °C 16.6 °C 1018.9 hPa Calm   9.7 km/h 75% 0.0 mm
08:59 21.2 °C 16.6 °C 1018.9 hPa Calm   7.4 km/h 75% 0.0 mm
09:04 21.3 °C 16.7 °C 1018.9 hPa Calm   8 km/h 75% 0.0 mm
09:09 21.3 °C 16.5 °C 1019.1 hPa Calm   5.6 km/h 74% 0.0 mm
09:14 21.4 °C 16.6 °C 1019.1 hPa Calm   7.4 km/h 74.2% 0.0 mm
09:19 21.6 °C 16.8 °C 1019.1 hPa Calm   8 km/h 74% 0.0 mm
09:24 21.7 °C 16.8 °C 1019.1 hPa Calm   7.4 km/h 73.4% 0.0 mm
09:29 21.8 °C 16.5 °C 1019.1 hPa Calm   8 km/h 72.2% 0.0 mm
09:34 22 °C 16.8 °C 1019.1 hPa Calm   2.3 km/h 72.4% 0.0 mm
09:39 22.1 °C 16.6 °C 1019.2 hPa Calm   5.6 km/h 70.8% 0.0 mm
09:44 22.2 °C 16.3 °C 1019.2 hPa Calm   4.8 km/h 69.4% 0.0 mm
09:49 22.5 °C 16.4 °C 1019.2 hPa Calm   3.7 km/h 68.3% 0.0 mm
09:54 22.8 °C 16.2 °C 1019.3 hPa Calm   3.2 km/h 66.4% 0.0 mm
09:59 23.1 °C 15.8 °C 1019.3 hPa Calm   8.4 km/h 63.7% 0.0 mm
10:04 23.3 °C 15.5 °C 1019.3 hPa Calm   13 km/h 61.5% 0.0 mm
10:09 23.3 °C 15.2 °C 1019.3 hPa NE 4.1 km/h 15.6 km/h 60.4% 0.0 mm
10:14 23.4 °C 15.4 °C 1019.3 hPa NE 6.9 km/h 16.1 km/h 61% 0.0 mm
10:19 23.8 °C 15.3 °C 1019.3 hPa NE 5.6 km/h 13 km/h 59.1% 0.0 mm
10:24 23.9 °C 15.1 °C 1019.3 hPa NNE 4.7 km/h 10.3 km/h 58% 0.0 mm
10:29 24.1 °C 15.3 °C 1019.2 hPa NE 5.4 km/h 13.7 km/h 58% 0.0 mm
10:34 24.2 °C 15.1 °C 1019.2 hPa ENE 5.8 km/h 16.7 km/h 57% 0.0 mm
10:39 24.1 °C 14.9 °C 1019.2 hPa NNE 6.2 km/h 16.1 km/h 56.5% 0.0 mm
10:44 24.1 °C 15 °C 1019.1 hPa North 6.4 km/h 13 km/h 57% 0.0 mm
10:49 24.2 °C 15.2 °C 1019.1 hPa Este 7.1 km/h 15.6 km/h 57.3% 0.0 mm
10:54 24.3 °C 15.1 °C 1019.1 hPa ENE 7.6 km/h 16.7 km/h 56.8% 0.0 mm
10:59 24.4 °C 15.2 °C 1019.0 hPa ENE 8.1 km/h 16.1 km/h 56.4% 0.0 mm
11:04 24.7 °C 15.2 °C 1019.0 hPa NE 8.4 km/h 15.6 km/h 55.5% 0.0 mm
11:09 24.7 °C 15.1 °C 1019.1 hPa NE 7.9 km/h 16.7 km/h 55% 0.0 mm
11:14 24.9 °C 15 °C 1019.1 hPa ESE 7.6 km/h 11.1 km/h 54.3% 0.0 mm
11:19 25.2 °C 15 °C 1019.1 hPa NO 6.9 km/h 23.3 km/h 53.4% 0.0 mm
11:24 25.3 °C 14.6 °C 1019.1 hPa NE 6.4 km/h 24.1 km/h 51.6% 0.0 mm
11:29 25.2 °C 14.6 °C 1019.0 hPa NE 8.6 km/h 13.7 km/h 51.9% 0.0 mm
11:34 25.2 °C 14.4 °C 1019.0 hPa NNE 10 km/h 24.1 km/h 51% 0.0 mm
11:39 25.2 °C 14.4 °C 1019.1 hPa NNE 10 km/h 22.2 km/h 51.3% 0.0 mm
11:44 25.2 °C 14.4 °C 1019.1 hPa NNE 10 km/h 22.5 km/h 51% 0.0 mm
11:49 25.3 °C 14.2 °C 1019.1 hPa NE 11.2 km/h 22.5 km/h 50.2% 0.0 mm
11:54 25.5 °C 14.3 °C 1019.1 hPa NE 11.9 km/h 16.1 km/h 49.9% 0.0 mm
11:59 25.7 °C 14.1 °C 1019.0 hPa NE 9.5 km/h 22.2 km/h 48.7% 0.0 mm
12:04 25.7 °C 14 °C 1019.0 hPa NE 8.4 km/h 25.9 km/h 48.5% 0.0 mm
12:09 25.6 °C 13.8 °C 1019.1 hPa NE 11.6 km/h 22.2 km/h 48.2% 0.0 mm
12:14 25.7 °C 13.9 °C 1019.1 hPa NE 13.7 km/h 16.7 km/h 48% 0.0 mm
12:19 26 °C 14 °C 1019.1 hPa NE 11.2 km/h 22.2 km/h 47.6% 0.0 mm
12:24 25.9 °C 13.8 °C 1019.1 hPa NE 9.5 km/h 18.5 km/h 47% 0.0 mm
12:29 26.1 °C 13.9 °C 1019.1 hPa NE 9.8 km/h 27.8 km/h 47% 0.0 mm
12:34 26.1 °C 13.9 °C 1019.1 hPa NE 10 km/h 29.1 km/h 47% 0.0 mm
12:39 26.1 °C 13.8 °C 1019.2 hPa ENE 12.3 km/h 29.6 km/h 46.8% 0.0 mm
12:44 26 °C 13.7 °C 1019.2 hPa ENE 14 km/h 24.1 km/h 46.7% 0.0 mm
12:49 26.3 °C 14 °C 1019.2 hPa NE 14 km/h 30.6 km/h 46.6% 0.0 mm
12:54 26.2 °C 14.1 °C 1019.2 hPa NE 14 km/h 29.6 km/h 47.3% 0.0 mm
12:59 26.3 °C 14.6 °C 1019.1 hPa ENE 15.3 km/h 27.8 km/h 48.6% 0.0 mm
13:04 26.4 °C 14.7 °C 1019.1 hPa NE 16.1 km/h 29.8 km/h 48.6% 0.0 mm
13:09 26.3 °C 14.5 °C 1019.1 hPa NE 14.8 km/h 30.6 km/h 48.5% 0.0 mm
13:14 26.2 °C 14.7 °C 1019.1 hPa NE 14 km/h 28.6 km/h 49.3% 0.0 mm
13:19 26.2 °C 15.1 °C 1019.1 hPa NE 14.5 km/h 29.6 km/h 50.7% 0.0 mm
13:24 26.3 °C 15.4 °C 1019.1 hPa ENE 14.8 km/h 32.8 km/h 51.4% 0.0 mm
13:29 26.3 °C 15.2 °C 1019.1 hPa ENE 14.1 km/h 33.3 km/h 50.7% 0.0 mm
13:34 26 °C 15 °C 1019.1 hPa NE 13.7 km/h 29.8 km/h 50.7% 0.0 mm
13:39 25.8 °C 14.8 °C 1019.1 hPa NE 15.4 km/h 37.8 km/h 50.6% 0.0 mm
13:44 25.8 °C 14.6 °C 1019.1 hPa NE 16.4 km/h 39.6 km/h 50% 0.0 mm
13:49 25.9 °C 14.6 °C 1019.1 hPa ENE 17.4 km/h 40.2 km/h 49.9% 0.0 mm
13:54 26.2 °C 14.8 °C 1019.1 hPa ENE 18 km/h 29.6 km/h 49.5% 0.0 mm
13:59 26.2 °C 14.7 °C 1019.0 hPa ENE 15.8 km/h 31.7 km/h 49.2% 0.0 mm
14:04 25.9 °C 15 °C 1019.0 hPa NE 14.8 km/h 32.2 km/h 50.9% 0.0 mm
14:09 26 °C 15.3 °C 1019.0 hPa ENE 16.3 km/h 28.6 km/h 52% 0.0 mm
14:14 26.2 °C 15.2 °C 1018.8 hPa ENE 17.2 km/h 32.3 km/h 50.8% 0.0 mm
14:19 26.2 °C 15.3 °C 1018.8 hPa ENE 15.7 km/h 30.6 km/h 51% 0.0 mm
14:24 26.3 °C 15.5 °C 1018.8 hPa ENE 14.8 km/h 29.1 km/h 51.5% 0.0 mm
14:29 26.3 °C 15.7 °C 1018.8 hPa Este 14.1 km/h 29.6 km/h 51.8% 0.0 mm
14:34 26.3 °C 15.8 °C 1018.8 hPa NE 13.7 km/h 29.6 km/h 52.4% 0.0 mm
14:39 26.3 °C 15.9 °C 1018.8 hPa NE 14.9 km/h 35.2 km/h 53% 0.0 mm
14:44 26.2 °C 15.9 °C 1018.7 hPa ENE 15.6 km/h 35.4 km/h 53% 0.0 mm
14:49 26.2 °C 15.9 °C 1018.7 hPa ENE 16.1 km/h 33.5 km/h 53% 0.0 mm
14:54 26.3 °C 15.8 °C 1018.7 hPa ENE 16.4 km/h 33.8 km/h 52.5% 0.0 mm
14:59 26.3 °C 15.7 °C 1018.6 hPa ENE 15.9 km/h 33.8 km/h 52% 0.0 mm
15:04 26.4 °C 15.7 °C 1018.6 hPa ENE 15.6 km/h 26.2 km/h 51.7% 0.0 mm
15:09 26.3 °C 15.4 °C 1018.6 hPa Este 15.1 km/h 29.8 km/h 51.2% 0.0 mm
15:14 26.2 °C 15.6 °C 1018.6 hPa ENE 14.8 km/h 31.5 km/h 52% 0.0 mm
15:19 26.3 °C 15.6 °C 1018.6 hPa ENE 15.8 km/h 24.5 km/h 51.9% 0.0 mm
15:24 26.2 °C 15 °C 1018.6 hPa NE 16.4 km/h 26.2 km/h 50% 0.0 mm
15:29 26.2 °C 15 °C 1018.6 hPa NE 16 km/h 27.8 km/h 50.3% 0.0 mm
15:34 26.2 °C 15.3 °C 1018.6 hPa NE 15.6 km/h 29.6 km/h 51.1% 0.0 mm
15:39 26.3 °C 15.1 °C 1018.6 hPa NNE 15.9 km/h 30.6 km/h 50.4% 0.0 mm
15:44 26.2 °C 15.3 °C 1018.4 hPa ENE 16.1 km/h 30.6 km/h 51.2% 0.0 mm
15:49 26.2 °C 15.1 °C 1018.4 hPa NE 14.9 km/h 27.8 km/h 50.5% 0.0 mm
15:54 26.2 °C 15.1 °C 1018.4 hPa NE 14 km/h 24.1 km/h 50.4% 0.0 mm
15:59 26.3 °C 15 °C 1018.3 hPa NNE 14.5 km/h 33.5 km/h 49.7% 0.0 mm
16:04 26.3 °C 14.8 °C 1018.3 hPa NE 14.8 km/h 33.8 km/h 49.3% 0.0 mm
16:09 26.2 °C 14.9 °C 1018.3 hPa ENE 15.6 km/h 33.8 km/h 49.7% 0.0 mm
16:14 26.3 °C 14.9 °C 1018.2 hPa ENE 16.1 km/h 27.4 km/h 49.4% 0.0 mm
16:19 26.4 °C 14.3 °C 1018.2 hPa NE 16.1 km/h 28.6 km/h 47.3% 0.0 mm
16:24 26.4 °C 13.9 °C 1018.2 hPa NE 16.1 km/h 31.5 km/h 46.2% 0.0 mm
16:29 26.3 °C 14.2 °C 1018.1 hPa NE 16.7 km/h 33.3 km/h 47.5% 0.0 mm
16:34 26.3 °C 14.7 °C 1018.1 hPa NE 17.2 km/h 33.8 km/h 48.8% 0.0 mm
16:39 26.4 °C 14.7 °C 1018.1 hPa NE 16.5 km/h 29.6 km/h 48.6% 0.0 mm
16:44 26.4 °C 14.8 °C 1018.0 hPa ENE 16.1 km/h 31.5 km/h 48.9% 0.0 mm
16:49 26.3 °C 14.9 °C 1018.0 hPa NE 15.8 km/h 32.2 km/h 49.6% 0.0 mm
16:54 26.3 °C 15.2 °C 1018.0 hPa NE 15.6 km/h 29.8 km/h 50.4% 0.0 mm
16:59 26.3 °C 15.3 °C 1017.9 hPa NE 15.9 km/h 31.7 km/h 51% 0.0 mm
17:04 26.2 °C 15.3 °C 1017.9 hPa NE 16.1 km/h 32.2 km/h 51.2% 0.0 mm
17:09 26.2 °C 15.4 °C 1017.9 hPa ENE 16.1 km/h 27.8 km/h 51.4% 0.0 mm
17:14 26.4 °C 15.6 °C 1017.8 hPa ENE 16.1 km/h 27.4 km/h 51.4% 0.0 mm
17:19 26.4 °C 15.8 °C 1017.8 hPa NNE 14.6 km/h 25.9 km/h 52% 0.0 mm
17:24 26.4 °C 15.8 °C 1017.8 hPa NE 13.7 km/h 29.8 km/h 52% 0.0 mm
17:29 26.2 °C 15.8 °C 1017.7 hPa NE 15.8 km/h 30.6 km/h 52.5% 0.0 mm
17:34 26.2 °C 15.8 °C 1017.7 hPa NE 17.2 km/h 25.9 km/h 53% 0.0 mm
17:39 26.2 °C 15.9 °C 1017.7 hPa ENE 16.2 km/h 25.7 km/h 53% 0.0 mm
17:44 26.2 °C 15.9 °C 1017.7 hPa NE 15.6 km/h 29.6 km/h 53% 0.0 mm
17:49 26.2 °C 16.1 °C 1017.7 hPa NE 15.1 km/h 33.3 km/h 53.8% 0.0 mm
17:54 26.2 °C 16.1 °C 1017.7 hPa ENE 14.8 km/h 33.8 km/h 54% 0.0 mm
17:59 26.2 °C 16.2 °C 1017.6 hPa NE 14.8 km/h 24.1 km/h 54% 0.0 mm
18:04 26.1 °C 16.2 °C 1017.6 hPa NE 14.8 km/h 28.2 km/h 54.3% 0.0 mm
18:09 26.1 °C 16.5 °C 1017.6 hPa NE 14.8 km/h 28.6 km/h 55.7% 0.0 mm
18:14 25.9 °C 16.5 °C 1017.6 hPa NE 14.8 km/h 29.6 km/h 56% 0.0 mm
18:19 26 °C 16.5 °C 1017.6 hPa ENE 15.8 km/h 35.9 km/h 56.1% 0.0 mm
18:24 25.9 °C 16.4 °C 1017.6 hPa NE 16.4 km/h 29.6 km/h 56% 0.0 mm
18:29 25.8 °C 16.3 °C 1017.5 hPa NE 16.2 km/h 29 km/h 56% 0.0 mm
18:34 25.8 °C 16.6 °C 1017.5 hPa NE 16.1 km/h 28.2 km/h 56.8% 0.0 mm
18:39 26 °C 16.5 °C 1017.6 hPa NE 15.4 km/h 26.2 km/h 55.9% 0.0 mm
18:44 25.9 °C 16.5 °C 1017.6 hPa NE 14.8 km/h 25.9 km/h 56% 0.0 mm
18:49 26 °C 16.5 °C 1017.6 hPa ENE 13.2 km/h 18.5 km/h 55.7% 0.0 mm
18:54 26.1 °C 16.1 °C 1017.6 hPa ENE 12.2 km/h 29.8 km/h 54.1% 0.0 mm
18:59 26 °C 15.8 °C 1017.4 hPa NE 13.2 km/h 30.6 km/h 53.3% 0.0 mm
19:04 26 °C 16 °C 1017.4 hPa NE 13.7 km/h 27.8 km/h 54.2% 0.0 mm
19:09 26.1 °C 16.1 °C 1017.4 hPa NE 13.3 km/h 29.1 km/h 54.1% 0.0 mm
19:14 25.9 °C 16.1 °C 1017.4 hPa NE 13 km/h 29.6 km/h 54.7% 0.0 mm
19:19 25.8 °C 15.7 °C 1017.4 hPa NNE 14.6 km/h 34.3 km/h 53.7% 0.0 mm
19:24 25.8 °C 15.9 °C 1017.4 hPa NE 15.6 km/h 33.3 km/h 54.5% 0.0 mm
19:29 25.7 °C 15.5 °C 1017.4 hPa NE 16.1 km/h 29.6 km/h 53.2% 0.0 mm
19:34 25.7 °C 15.4 °C 1017.4 hPa NE 16.4 km/h 22.5 km/h 52.8% 0.0 mm
19:39 25.6 °C 15.3 °C 1017.5 hPa NE 15.4 km/h 29.6 km/h 52.8% 0.0 mm
19:44 25.4 °C 15.1 °C 1017.5 hPa NE 14.8 km/h 31.5 km/h 53% 0.0 mm
19:49 25.5 °C 15 °C 1017.5 hPa NE 15.8 km/h 32.2 km/h 52.3% 0.0 mm
19:54 25.5 °C 14.9 °C 1017.7 hPa NE 16.4 km/h 29.6 km/h 52% 0.0 mm
19:59 25.3 °C 14.7 °C 1017.7 hPa NE 16.4 km/h 29.6 km/h 52% 0.0 mm
20:04 25.2 °C 14.7 °C 1017.7 hPa NE 16.4 km/h 29 km/h 52.1% 0.0 mm
20:09 25.2 °C 14.8 °C 1017.7 hPa NE 15.9 km/h 24.1 km/h 52.6% 0.0 mm
20:14 25.2 °C 15 °C 1017.6 hPa NE 15.6 km/h 24.1 km/h 53% 0.0 mm
20:19 25.2 °C 15.1 °C 1017.6 hPa NE 13.9 km/h 24.1 km/h 53.9% 0.0 mm
20:24 25.1 °C 15.1 °C 1017.6 hPa NE 13 km/h 22.2 km/h 54% 0.0 mm
20:29 25.1 °C 15.1 °C 1017.6 hPa ENE 11.9 km/h 19 km/h 53.8% 0.0 mm
20:34 25.1 °C 14.6 °C 1017.6 hPa NE 11.1 km/h 17.2 km/h 52.4% 0.0 mm
20:39 25 °C 14.5 °C 1017.6 hPa NE 11.1 km/h 20.9 km/h 52.1% 0.0 mm
20:44 24.9 °C 14.7 °C 1017.6 hPa NE 11.1 km/h 20.4 km/h 53% 0.0 mm
20:49 24.8 °C 14.6 °C 1017.6 hPa NE 11.1 km/h 20.9 km/h 53% 0.0 mm
20:54 24.7 °C 14.8 °C 1017.9 hPa NE 11.1 km/h 22.2 km/h 53.9% 0.0 mm
20:59 24.6 °C 14.8 °C 1017.9 hPa NE 11.1 km/h 24.5 km/h 54.6% 0.0 mm
21:04 24.3 °C 14.8 °C 1017.9 hPa NE 11.1 km/h 26.2 km/h 55.1% 0.0 mm
21:09 24.3 °C 15.1 °C 1018.1 hPa NE 13 km/h 25.7 km/h 56.4% 0.0 mm
21:14 24.2 °C 15.3 °C 1018.1 hPa NE 14 km/h 22.2 km/h 57.9% 0.0 mm
21:19 24.1 °C 15.6 °C 1018.1 hPa NE 12.8 km/h 14.8 km/h 59.1% 0.0 mm
21:24 24 °C 15.9 °C 1018.4 hPa ENE 11.9 km/h 14.8 km/h 60.4% 0.0 mm
21:29 23.9 °C 16.2 °C 1018.4 hPa ENE 9.6 km/h 14.5 km/h 62% 0.0 mm
21:34 23.8 °C 16.3 °C 1018.4 hPa ENE 8.4 km/h 14.8 km/h 63% 0.0 mm
21:39 23.6 °C 16.3 °C 1018.5 hPa NE 8.4 km/h 17.2 km/h 63.5% 0.0 mm
21:44 23.4 °C 16.2 °C 1018.5 hPa ENE 8.4 km/h 20.4 km/h 64.1% 0.0 mm
21:49 23.2 °C 16.3 °C 1018.5 hPa NE 9.3 km/h 20.4 km/h 65.1% 0.0 mm
21:54 23.1 °C 16.4 °C 1018.8 hPa NE 10 km/h 19 km/h 66.1% 0.0 mm
21:59 22.9 °C 16.6 °C 1018.8 hPa NE 10.2 km/h 19.3 km/h 67.4% 0.0 mm
22:04 22.9 °C 16.8 °C 1018.8 hPa NE 10.3 km/h 19.3 km/h 68.6% 0.0 mm
22:09 22.8 °C 17 °C 1018.9 hPa NE 9.1 km/h 16.4 km/h 69.8% 0.0 mm
22:14 22.7 °C 17.2 °C 1018.9 hPa NE 8.4 km/h 16.7 km/h 70.8% 0.0 mm
22:19 22.7 °C 17.4 °C 1018.9 hPa NE 8.6 km/h 13.7 km/h 71.9% 0.0 mm
22:24 22.6 °C 17.5 °C 1019.0 hPa NE 8.7 km/h 18.5 km/h 72.9% 0.0 mm
22:29 22.4 °C 17.6 °C 1019.0 hPa NE 9.2 km/h 19.3 km/h 74% 0.0 mm
22:34 22.4 °C 17.6 °C 1019.0 hPa NE 9.5 km/h 13.7 km/h 74.5% 0.0 mm
22:39 22.3 °C 17.7 °C 1019.3 hPa NE 9 km/h 15.6 km/h 75% 0.0 mm
22:44 22.3 °C 17.8 °C 1019.3 hPa NE 8.7 km/h 13 km/h 75.6% 0.0 mm
22:49 22.3 °C 17.9 °C 1019.3 hPa NNE 8.5 km/h 13 km/h 76% 0.0 mm
22:54 22.2 °C 17.8 °C 1019.5 hPa NNE 8.4 km/h 11.9 km/h 76% 0.0 mm
22:59 22.2 °C 17.7 °C 1019.5 hPa NNE 7.8 km/h 11.3 km/h 76% 0.0 mm
23:04 22.1 °C 17.7 °C 1019.5 hPa NNE 7.6 km/h 10 km/h 76% 0.0 mm
23:09 22.1 °C 17.6 °C 1019.6 hPa NE 6.5 km/h 10.3 km/h 76% 0.0 mm
23:14 22 °C 17.7 °C 1019.6 hPa NE 5.8 km/h 13 km/h 76.7% 0.0 mm
23:19 21.9 °C 17.7 °C 1019.6 hPa NNE 6.5 km/h 12.9 km/h 77% 0.0 mm
23:24 21.9 °C 17.7 °C 1019.9 hPa NNE 6.9 km/h 9.3 km/h 77% 0.0 mm
23:29 21.8 °C 17.6 °C 1019.9 hPa NNE 6.3 km/h 7.4 km/h 77% 0.0 mm
23:34 21.8 °C 17.6 °C 1019.9 hPa North 5.8 km/h 8.4 km/h 77% 0.0 mm
23:39 21.8 °C 17.6 °C 1019.9 hPa NNE 5.3 km/h 8 km/h 77% 0.0 mm
23:44 21.8 °C 17.6 °C 1019.9 hPa NNO 5 km/h 7.4 km/h 77% 0.0 mm
23:49 21.8 °C 17.4 °C 1019.9 hPa North 4.3 km/h 7.6 km/h 76.2% 0.0 mm
Murcia-Puente Tocinos, España
Compliments of Weather Underground - 3 mb

La estación de MeteoMurcia.com, publica sus datos en los siguientes proyectos:

Weather Underground PWS IMURCIAP2 Meteoclimatic www.awekas.at

W3Counter
Web Analytics